sensor_id;sensor_type;location;lat;lon;timestamp;temperature;humidity
59162;DHT22;44942;48.936;8.260;2022-11-20T00:01:37;21.00;55.20
59162;DHT22;44942;48.936;8.260;2022-11-20T00:06:38;21.00;55.10
59162;DHT22;44942;48.936;8.260;2022-11-20T00:11:39;20.90;55.10
59162;DHT22;44942;48.936;8.260;2022-11-20T00:16:39;21.00;55.10
59162;DHT22;44942;48.936;8.260;2022-11-20T00:21:40;20.90;55.00
59162;DHT22;44942;48.936;8.260;2022-11-20T00:26:40;21.00;55.00
59162;DHT22;44942;48.936;8.260;2022-11-20T00:31:41;21.00;55.00
59162;DHT22;44942;48.936;8.260;2022-11-20T00:36:41;21.00;55.00
59162;DHT22;44942;48.936;8.260;2022-11-20T00:41:42;21.00;55.10
59162;DHT22;44942;48.936;8.260;2022-11-20T00:46:42;21.00;55.00
59162;DHT22;44942;48.936;8.260;2022-11-20T00:51:43;20.90;54.90
59162;DHT22;44942;48.936;8.260;2022-11-20T00:56:43;21.00;54.90
59162;DHT22;44942;48.936;8.260;2022-11-20T01:01:44;20.90;54.90
59162;DHT22;44942;48.936;8.260;2022-11-20T01:06:44;20.90;54.90
59162;DHT22;44942;48.936;8.260;2022-11-20T01:11:45;21.00;54.80
59162;DHT22;44942;48.936;8.260;2022-11-20T01:16:48;21.10;54.70
59162;DHT22;44942;48.936;8.260;2022-11-20T01:21:52;21.10;54.70
59162;DHT22;44942;48.936;8.260;2022-11-20T01:26:53;21.00;54.60
59162;DHT22;44942;48.936;8.260;2022-11-20T01:31:53;21.10;54.60
59162;DHT22;44942;48.936;8.260;2022-11-20T01:36:54;21.00;54.60
59162;DHT22;44942;48.936;8.260;2022-11-20T01:41:56;21.10;54.70
59162;DHT22;44942;48.936;8.260;2022-11-20T01:47:42;21.00;54.70
59162;DHT22;44942;48.936;8.260;2022-11-20T01:52:51;21.00;54.80
59162;DHT22;44942;48.936;8.260;2022-11-20T01:57:55;21.00;54.90
59162;DHT22;44942;48.936;8.260;2022-11-20T02:03:07;21.00;54.90
59162;DHT22;44942;48.936;8.260;2022-11-20T02:08:08;21.00;55.20
59162;DHT22;44942;48.936;8.260;2022-11-20T02:13:09;21.00;55.20
59162;DHT22;44942;48.936;8.260;2022-11-20T02:18:28;21.00;55.10
59162;DHT22;44942;48.936;8.260;2022-11-20T02:23:38;21.00;55.10
59162;DHT22;44942;48.936;8.260;2022-11-20T02:28:39;21.00;55.30
59162;DHT22;44942;48.936;8.260;2022-11-20T02:33:39;21.10;55.30
59162;DHT22;44942;48.936;8.260;2022-11-20T02:38:41;21.00;55.30
59162;DHT22;44942;48.936;8.260;2022-11-20T02:43:42;21.00;55.20
59162;DHT22;44942;48.936;8.260;2022-11-20T02:48:42;21.00;55.30
59162;DHT22;44942;48.936;8.260;2022-11-20T02:53:43;21.00;55.30
59162;DHT22;44942;48.936;8.260;2022-11-20T02:58:43;21.00;55.20
59162;DHT22;44942;48.936;8.260;2022-11-20T03:03:44;21.00;55.20
59162;DHT22;44942;48.936;8.260;2022-11-20T03:08:45;21.10;55.20
59162;DHT22;44942;48.936;8.260;2022-11-20T03:13:45;21.00;55.20
59162;DHT22;44942;48.936;8.260;2022-11-20T03:18:46;21.00;55.20
59162;DHT22;44942;48.936;8.260;2022-11-20T03:23:47;21.00;55.10
59162;DHT22;44942;48.936;8.260;2022-11-20T03:28:52;21.00;55.20
59162;DHT22;44942;48.936;8.260;2022-11-20T03:33:53;21.00;55.10
59162;DHT22;44942;48.936;8.260;2022-11-20T03:38:55;21.00;55.10
59162;DHT22;44942;48.936;8.260;2022-11-20T03:43:58;21.00;55.00
59162;DHT22;44942;48.936;8.260;2022-11-20T03:48:59;21.00;55.00
59162;DHT22;44942;48.936;8.260;2022-11-20T03:54:02;21.00;55.10
59162;DHT22;44942;48.936;8.260;2022-11-20T03:59:03;21.00;55.10
59162;DHT22;44942;48.936;8.260;2022-11-20T04:04:05;21.00;55.20
59162;DHT22;44942;48.936;8.260;2022-11-20T04:09:06;21.00;55.20
59162;DHT22;44942;48.936;8.260;2022-11-20T04:14:13;21.00;55.30
59162;DHT22;44942;48.936;8.260;2022-11-20T04:19:15;20.90;55.30
59162;DHT22;44942;48.936;8.260;2022-11-20T04:24:16;21.00;55.40
59162;DHT22;44942;48.936;8.260;2022-11-20T04:29:17;21.00;55.40
59162;DHT22;44942;48.936;8.260;2022-11-20T04:34:17;21.00;55.30
59162;DHT22;44942;48.936;8.260;2022-11-20T04:39:18;21.00;55.20
59162;DHT22;44942;48.936;8.260;2022-11-20T04:44:18;21.00;55.20
59162;DHT22;44942;48.936;8.260;2022-11-20T04:49:19;21.00;55.20
59162;DHT22;44942;48.936;8.260;2022-11-20T04:54:19;20.90;55.10
59162;DHT22;44942;48.936;8.260;2022-11-20T04:59:20;20.90;55.10
59162;DHT22;44942;48.936;8.260;2022-11-20T05:04:21;20.90;55.00
59162;DHT22;44942;48.936;8.260;2022-11-20T05:09:22;20.90;55.10
59162;DHT22;44942;48.936;8.260;2022-11-20T05:14:22;20.90;55.00
59162;DHT22;44942;48.936;8.260;2022-11-20T05:19:23;20.90;55.00
59162;DHT22;44942;48.936;8.260;2022-11-20T05:24:23;20.90;55.00
59162;DHT22;44942;48.936;8.260;2022-11-20T05:29:24;20.90;55.10
59162;DHT22;44942;48.936;8.260;2022-11-20T05:34:25;20.90;55.10
59162;DHT22;44942;48.936;8.260;2022-11-20T05:39:25;20.90;55.10
59162;DHT22;44942;48.936;8.260;2022-11-20T05:44:26;20.90;55.00
59162;DHT22;44942;48.936;8.260;2022-11-20T05:49:26;20.90;55.00
59162;DHT22;44942;48.936;8.260;2022-11-20T05:54:27;20.90;55.10
59162;DHT22;44942;48.936;8.260;2022-11-20T05:59:27;20.90;55.10
59162;DHT22;44942;48.936;8.260;2022-11-20T06:04:28;20.90;55.10
59162;DHT22;44942;48.936;8.260;2022-11-20T06:09:29;20.90;55.10
59162;DHT22;44942;48.936;8.260;2022-11-20T06:14:29;20.90;55.10
59162;DHT22;44942;48.936;8.260;2022-11-20T06:19:30;20.90;55.10
59162;DHT22;44942;48.936;8.260;2022-11-20T06:24:30;20.90;55.00
59162;DHT22;44942;48.936;8.260;2022-11-20T06:29:31;20.90;55.00
59162;DHT22;44942;48.936;8.260;2022-11-20T06:34:31;20.90;54.90
59162;DHT22;44942;48.936;8.260;2022-11-20T06:39:32;20.90;54.80
59162;DHT22;44942;48.936;8.260;2022-11-20T06:44:32;20.90;54.90
59162;DHT22;44942;48.936;8.260;2022-11-20T06:49:33;20.90;54.90
59162;DHT22;44942;48.936;8.260;2022-11-20T06:54:34;20.80;54.80
59162;DHT22;44942;48.936;8.260;2022-11-20T06:59:35;20.80;54.90
59162;DHT22;44942;48.936;8.260;2022-11-20T07:04:35;20.80;54.90
59162;DHT22;44942;48.936;8.260;2022-11-20T07:09:36;20.80;54.90
59162;DHT22;44942;48.936;8.260;2022-11-20T07:14:36;20.80;55.00
59162;DHT22;44942;48.936;8.260;2022-11-20T07:19:37;20.80;55.00
59162;DHT22;44942;48.936;8.260;2022-11-20T07:24:37;20.80;54.90
59162;DHT22;44942;48.936;8.260;2022-11-20T07:29:38;20.80;55.50
59162;DHT22;44942;48.936;8.260;2022-11-20T07:34:38;20.80;54.70
59162;DHT22;44942;48.936;8.260;2022-11-20T07:39:39;20.80;54.80
59162;DHT22;44942;48.936;8.260;2022-11-20T07:44:40;20.80;54.90
59162;DHT22;44942;48.936;8.260;2022-11-20T07:49:40;20.80;55.00
59162;DHT22;44942;48.936;8.260;2022-11-20T07:54:41;20.80;55.10
59162;DHT22;44942;48.936;8.260;2022-11-20T07:59:41;20.80;55.20
59162;DHT22;44942;48.936;8.260;2022-11-20T08:04:42;20.80;55.10
59162;DHT22;44942;48.936;8.260;2022-11-20T08:09:42;20.80;55.00
59162;DHT22;44942;48.936;8.260;2022-11-20T08:14:43;20.80;55.00
59162;DHT22;44942;48.936;8.260;2022-11-20T08:19:43;20.80;55.00
59162;DHT22;44942;48.936;8.260;2022-11-20T08:24:44;20.80;55.00
59162;DHT22;44942;48.936;8.260;2022-11-20T08:29:44;20.80;55.00
59162;DHT22;44942;48.936;8.260;2022-11-20T08:34:45;20.80;55.00
59162;DHT22;44942;48.936;8.260;2022-11-20T08:39:46;20.80;55.10
59162;DHT22;44942;48.936;8.260;2022-11-20T08:44:47;20.80;55.10
59162;DHT22;44942;48.936;8.260;2022-11-20T08:49:47;20.80;55.20
59162;DHT22;44942;48.936;8.260;2022-11-20T08:54:48;20.80;55.00
59162;DHT22;44942;48.936;8.260;2022-11-20T08:59:48;20.60;53.70
59162;DHT22;44942;48.936;8.260;2022-11-20T09:04:49;20.40;52.50
59162;DHT22;44942;48.936;8.260;2022-11-20T09:09:50;20.40;52.20
59162;DHT22;44942;48.936;8.260;2022-11-20T09:14:50;20.40;52.30
59162;DHT22;44942;48.936;8.260;2022-11-20T09:19:51;20.40;52.30
59162;DHT22;44942;48.936;8.260;2022-11-20T09:24:51;20.50;52.50
59162;DHT22;44942;48.936;8.260;2022-11-20T09:29:52;20.50;52.70
59162;DHT22;44942;48.936;8.260;2022-11-20T09:34:53;20.50;52.80
59162;DHT22;44942;48.936;8.260;2022-11-20T09:39:53;20.50;52.90
59162;DHT22;44942;48.936;8.260;2022-11-20T09:55:28;20.60;53.30
59162;DHT22;44942;48.936;8.260;2022-11-20T10:00:29;20.50;53.40
59162;DHT22;44942;48.936;8.260;2022-11-20T10:10:45;20.60;53.50
59162;DHT22;44942;48.936;8.260;2022-11-20T10:16:56;20.50;54.30
59162;DHT22;44942;48.936;8.260;2022-11-20T10:22:03;20.60;53.80
59162;DHT22;44942;48.936;8.260;2022-11-20T10:27:09;20.50;53.70
59162;DHT22;44942;48.936;8.260;2022-11-20T10:32:19;20.50;53.70
59162;DHT22;44942;48.936;8.260;2022-11-20T10:37:25;20.50;53.90
59162;DHT22;44942;48.936;8.260;2022-11-20T10:42:37;20.50;54.00
59162;DHT22;44942;48.936;8.260;2022-11-20T10:47:39;20.50;54.20
59162;DHT22;44942;48.936;8.260;2022-11-20T10:53:16;20.50;54.30
59162;DHT22;44942;48.936;8.260;2022-11-20T11:03:31;20.60;54.60
59162;DHT22;44942;48.936;8.260;2022-11-20T11:08:36;20.50;54.80
59162;DHT22;44942;48.936;8.260;2022-11-20T11:13:37;20.60;55.00
59162;DHT22;44942;48.936;8.260;2022-11-20T11:18:38;20.60;55.10
59162;DHT22;44942;48.936;8.260;2022-11-20T11:23:42;20.60;55.20
59162;DHT22;44942;48.936;8.260;2022-11-20T11:28:53;20.60;55.20
59162;DHT22;44942;48.936;8.260;2022-11-20T11:34:07;20.60;55.30
59162;DHT22;44942;48.936;8.260;2022-11-20T11:39:14;20.60;55.20
59162;DHT22;44942;48.936;8.260;2022-11-20T11:44:23;20.60;55.20
59162;DHT22;44942;48.936;8.260;2022-11-20T11:49:44;20.60;55.30
59162;DHT22;44942;48.936;8.260;2022-11-20T11:54:59;20.60;55.40
59162;DHT22;44942;48.936;8.260;2022-11-20T12:00:09;20.60;55.50
59162;DHT22;44942;48.936;8.260;2022-11-20T12:05:30;20.60;55.50
59162;DHT22;44942;48.936;8.260;2022-11-20T12:10:43;20.70;55.60
59162;DHT22;44942;48.936;8.260;2022-11-20T12:15:47;20.70;55.50
59162;DHT22;44942;48.936;8.260;2022-11-20T12:26:45;20.60;55.40
59162;DHT22;44942;48.936;8.260;2022-11-20T12:37:45;20.70;55.50
59162;DHT22;44942;48.936;8.260;2022-11-20T12:43:04;20.70;55.40
59162;DHT22;44942;48.936;8.260;2022-11-20T12:48:50;20.70;55.30
59162;DHT22;44942;48.936;8.260;2022-11-20T13:09:20;20.70;55.30
59162;DHT22;44942;48.936;8.260;2022-11-20T13:20:02;20.80;55.10
59162;DHT22;44942;48.936;8.260;2022-11-20T13:25:09;20.80;55.00
59162;DHT22;44942;48.936;8.260;2022-11-20T13:30:16;20.80;55.00
59162;DHT22;44942;48.936;8.260;2022-11-20T13:35:29;20.80;55.10
59162;DHT22;44942;48.936;8.260;2022-11-20T13:40:30;20.80;55.20
59162;DHT22;44942;48.936;8.260;2022-11-20T13:45:32;20.80;55.30
59162;DHT22;44942;48.936;8.260;2022-11-20T13:56:00;20.80;55.50
59162;DHT22;44942;48.936;8.260;2022-11-20T14:01:21;20.80;55.50
59162;DHT22;44942;48.936;8.260;2022-11-20T14:06:27;20.80;55.50
59162;DHT22;44942;48.936;8.260;2022-11-20T14:11:29;20.80;55.40
59162;DHT22;44942;48.936;8.260;2022-11-20T14:16:34;20.80;55.40
59162;DHT22;44942;48.936;8.260;2022-11-20T14:21:35;20.80;55.40
59162;DHT22;44942;48.936;8.260;2022-11-20T14:26:40;20.80;55.20
59162;DHT22;44942;48.936;8.260;2022-11-20T14:31:42;20.80;55.10
59162;DHT22;44942;48.936;8.260;2022-11-20T14:36:43;20.80;55.00
59162;DHT22;44942;48.936;8.260;2022-11-20T14:41:50;20.80;54.70
59162;DHT22;44942;48.936;8.260;2022-11-20T14:46:52;20.80;54.60
59162;DHT22;44942;48.936;8.260;2022-11-20T14:52:12;20.80;54.60
59162;DHT22;44942;48.936;8.260;2022-11-20T15:02:29;20.80;54.40
59162;DHT22;44942;48.936;8.260;2022-11-20T15:07:33;20.80;54.40
59162;DHT22;44942;48.936;8.260;2022-11-20T15:12:53;20.80;54.40
59162;DHT22;44942;48.936;8.260;2022-11-20T15:17:54;20.80;54.20
59162;DHT22;44942;48.936;8.260;2022-11-20T15:22:54;20.80;54.20
59162;DHT22;44942;48.936;8.260;2022-11-20T15:27:56;20.80;54.20
59162;DHT22;44942;48.936;8.260;2022-11-20T15:32:56;20.80;54.10
59162;DHT22;44942;48.936;8.260;2022-11-20T15:37:57;20.80;54.00
59162;DHT22;44942;48.936;8.260;2022-11-20T15:42:58;20.80;53.90
59162;DHT22;44942;48.936;8.260;2022-11-20T15:48:05;20.80;54.00
59162;DHT22;44942;48.936;8.260;2022-11-20T15:53:10;20.80;54.00
59162;DHT22;44942;48.936;8.260;2022-11-20T15:58:10;20.80;54.00
59162;DHT22;44942;48.936;8.260;2022-11-20T16:03:12;20.70;53.90
59162;DHT22;44942;48.936;8.260;2022-11-20T16:08:13;20.70;53.90
59162;DHT22;44942;48.936;8.260;2022-11-20T16:13:16;20.70;53.80
59162;DHT22;44942;48.936;8.260;2022-11-20T16:18:36;20.70;53.80
59162;DHT22;44942;48.936;8.260;2022-11-20T16:23:36;20.70;53.80
59162;DHT22;44942;48.936;8.260;2022-11-20T16:28:37;20.70;53.80
59162;DHT22;44942;48.936;8.260;2022-11-20T16:33:38;20.70;53.80
59162;DHT22;44942;48.936;8.260;2022-11-20T16:38:39;20.70;53.80
59162;DHT22;44942;48.936;8.260;2022-11-20T16:43:48;20.70;53.90
59162;DHT22;44942;48.936;8.260;2022-11-20T16:48:53;20.70;53.90
59162;DHT22;44942;48.936;8.260;2022-11-20T16:53:54;20.60;54.00
59162;DHT22;44942;48.936;8.260;2022-11-20T16:58:59;20.70;54.10
59162;DHT22;44942;48.936;8.260;2022-11-20T17:04:03;20.70;54.10
59162;DHT22;44942;48.936;8.260;2022-11-20T17:09:04;20.70;54.10
59162;DHT22;44942;48.936;8.260;2022-11-20T17:14:06;20.70;54.20
59162;DHT22;44942;48.936;8.260;2022-11-20T17:19:06;20.70;54.30
59162;DHT22;44942;48.936;8.260;2022-11-20T17:24:10;20.70;54.50
59162;DHT22;44942;48.936;8.260;2022-11-20T17:29:13;20.70;55.00
59162;DHT22;44942;48.936;8.260;2022-11-20T17:34:15;20.70;55.30
59162;DHT22;44942;48.936;8.260;2022-11-20T17:39:16;20.70;55.40
59162;DHT22;44942;48.936;8.260;2022-11-20T17:44:17;20.70;55.40
59162;DHT22;44942;48.936;8.260;2022-11-20T17:49:17;20.70;56.50
59162;DHT22;44942;48.936;8.260;2022-11-20T17:54:18;20.70;55.90
59162;DHT22;44942;48.936;8.260;2022-11-20T17:59:18;20.70;56.00
59162;DHT22;44942;48.936;8.260;2022-11-20T18:04:19;20.70;56.10
59162;DHT22;44942;48.936;8.260;2022-11-20T18:09:20;20.80;56.30
59162;DHT22;44942;48.936;8.260;2022-11-20T18:14:20;20.80;56.20
59162;DHT22;44942;48.936;8.260;2022-11-20T18:19:38;20.80;56.30
59162;DHT22;44942;48.936;8.260;2022-11-20T18:24:39;20.80;56.40
59162;DHT22;44942;48.936;8.260;2022-11-20T18:29:39;20.80;56.50
59162;DHT22;44942;48.936;8.260;2022-11-20T18:34:40;20.90;56.60
59162;DHT22;44942;48.936;8.260;2022-11-20T18:39:41;20.90;56.50
59162;DHT22;44942;48.936;8.260;2022-11-20T18:44:42;20.90;56.50
59162;DHT22;44942;48.936;8.260;2022-11-20T18:49:54;20.90;56.60
59162;DHT22;44942;48.936;8.260;2022-11-20T18:54:56;20.90;56.50
59162;DHT22;44942;48.936;8.260;2022-11-20T18:59:57;20.90;56.40
59162;DHT22;44942;48.936;8.260;2022-11-20T19:05:01;20.90;56.50
59162;DHT22;44942;48.936;8.260;2022-11-20T19:10:01;20.90;56.50
59162;DHT22;44942;48.936;8.260;2022-11-20T19:15:03;20.90;56.30
59162;DHT22;44942;48.936;8.260;2022-11-20T19:20:03;20.90;56.40
59162;DHT22;44942;48.936;8.260;2022-11-20T19:25:04;20.90;56.40
59162;DHT22;44942;48.936;8.260;2022-11-20T19:30:06;20.90;56.50
59162;DHT22;44942;48.936;8.260;2022-11-20T19:35:07;20.90;56.30
59162;DHT22;44942;48.936;8.260;2022-11-20T19:40:07;21.00;56.10
59162;DHT22;44942;48.936;8.260;2022-11-20T19:45:08;20.90;56.00
59162;DHT22;44942;48.936;8.260;2022-11-20T19:50:09;21.00;56.00
59162;DHT22;44942;48.936;8.260;2022-11-20T19:55:09;20.90;55.90
59162;DHT22;44942;48.936;8.260;2022-11-20T20:00:10;21.00;55.90
59162;DHT22;44942;48.936;8.260;2022-11-20T20:05:13;21.00;55.80
59162;DHT22;44942;48.936;8.260;2022-11-20T20:10:13;21.00;55.80
59162;DHT22;44942;48.936;8.260;2022-11-20T20:15:14;21.00;55.90
59162;DHT22;44942;48.936;8.260;2022-11-20T20:20:15;20.90;55.90
59162;DHT22;44942;48.936;8.260;2022-11-20T20:25:15;21.00;55.90
59162;DHT22;44942;48.936;8.260;2022-11-20T20:30:16;20.90;55.90
59162;DHT22;44942;48.936;8.260;2022-11-20T20:35:16;20.90;55.80
59162;DHT22;44942;48.936;8.260;2022-11-20T20:40:17;21.00;56.00
59162;DHT22;44942;48.936;8.260;2022-11-20T20:45:18;21.00;55.80
59162;DHT22;44942;48.936;8.260;2022-11-20T20:50:19;21.00;55.70
59162;DHT22;44942;48.936;8.260;2022-11-20T20:55:20;21.00;55.60
59162;DHT22;44942;48.936;8.260;2022-11-20T21:00:20;21.00;55.60
59162;DHT22;44942;48.936;8.260;2022-11-20T21:05:21;21.00;55.40
59162;DHT22;44942;48.936;8.260;2022-11-20T21:10:21;21.00;55.30
59162;DHT22;44942;48.936;8.260;2022-11-20T21:15:22;21.00;55.10
59162;DHT22;44942;48.936;8.260;2022-11-20T21:20:22;20.90;54.90
59162;DHT22;44942;48.936;8.260;2022-11-20T21:25:42;20.90;54.70
59162;DHT22;44942;48.936;8.260;2022-11-20T21:30:42;20.90;54.80
59162;DHT22;44942;48.936;8.260;2022-11-20T21:35:43;20.90;54.70
59162;DHT22;44942;48.936;8.260;2022-11-20T21:40:44;20.90;54.70
59162;DHT22;44942;48.936;8.260;2022-11-20T21:45:44;20.90;54.70
59162;DHT22;44942;48.936;8.260;2022-11-20T21:50:45;20.90;54.70
59162;DHT22;44942;48.936;8.260;2022-11-20T21:55:53;20.90;54.60
59162;DHT22;44942;48.936;8.260;2022-11-20T22:00:54;20.80;54.50
59162;DHT22;44942;48.936;8.260;2022-11-20T22:05:55;20.90;54.70
59162;DHT22;44942;48.936;8.260;2022-11-20T22:11:01;20.90;54.80
59162;DHT22;44942;48.936;8.260;2022-11-20T22:16:02;20.90;54.90
59162;DHT22;44942;48.936;8.260;2022-11-20T22:21:06;20.90;54.90
59162;DHT22;44942;48.936;8.260;2022-11-20T22:26:09;20.90;55.00
59162;DHT22;44942;48.936;8.260;2022-11-20T22:31:10;20.90;54.80
59162;DHT22;44942;48.936;8.260;2022-11-20T22:36:13;20.90;54.50
59162;DHT22;44942;48.936;8.260;2022-11-20T22:41:22;21.00;54.30
59162;DHT22;44942;48.936;8.260;2022-11-20T22:46:25;21.00;54.20
59162;DHT22;44942;48.936;8.260;2022-11-20T22:51:28;20.90;54.20
59162;DHT22;44942;48.936;8.260;2022-11-20T22:56:29;20.90;54.30
59162;DHT22;44942;48.936;8.260;2022-11-20T23:01:33;20.90;54.10
59162;DHT22;44942;48.936;8.260;2022-11-20T23:06:34;20.80;53.80
59162;DHT22;44942;48.936;8.260;2022-11-20T23:11:35;20.70;53.80
59162;DHT22;44942;48.936;8.260;2022-11-20T23:16:36;20.80;54.00
59162;DHT22;44942;48.936;8.260;2022-11-20T23:21:38;20.80;54.10
59162;DHT22;44942;48.936;8.260;2022-11-20T23:26:40;20.80;54.10
59162;DHT22;44942;48.936;8.260;2022-11-20T23:31:40;20.80;54.20
59162;DHT22;44942;48.936;8.260;2022-11-20T23:36:41;20.80;54.40
59162;DHT22;44942;48.936;8.260;2022-11-20T23:41:41;20.90;54.60
59162;DHT22;44942;48.936;8.260;2022-11-20T23:46:42;20.80;54.70
59162;DHT22;44942;48.936;8.260;2022-11-20T23:51:43;20.80;54.50
59162;DHT22;44942;48.936;8.260;2022-11-20T23:56:43;20.80;54.50
